sensor_id;sensor_type;location;lat;lon;timestamp;P1;durP1;ratioP1;P2;durP2;ratioP2
64395;SDS011;50717;53.360;6.290;2022-08-07T00:01:53;14.23;;;8.48;;
64395;SDS011;50717;53.360;6.290;2022-08-07T00:04:19;14.18;;;9.32;;
64395;SDS011;50717;53.360;6.290;2022-08-07T00:06:45;12.43;;;8.65;;
64395;SDS011;50717;53.360;6.290;2022-08-07T00:09:10;14.07;;;9.52;;
64395;SDS011;50717;53.360;6.290;2022-08-07T00:11:36;11.00;;;8.73;;
64395;SDS011;50717;53.360;6.290;2022-08-07T00:14:02;12.38;;;7.95;;
64395;SDS011;50717;53.360;6.290;2022-08-07T00:16:27;13.32;;;8.85;;
64395;SDS011;50717;53.360;6.290;2022-08-07T00:18:53;12.05;;;8.25;;
64395;SDS011;50717;53.360;6.290;2022-08-07T00:21:19;13.20;;;9.15;;
64395;SDS011;50717;53.360;6.290;2022-08-07T00:26:11;11.40;;;8.35;;
64395;SDS011;50717;53.360;6.290;2022-08-07T00:28:37;16.15;;;9.50;;
64395;SDS011;50717;53.360;6.290;2022-08-07T00:33:33;11.25;;;8.30;;
64395;SDS011;50717;53.360;6.290;2022-08-07T00:35:59;12.23;;;8.50;;
64395;SDS011;50717;53.360;6.290;2022-08-07T00:38:25;10.85;;;8.27;;
64395;SDS011;50717;53.360;6.290;2022-08-07T00:40:51;15.05;;;8.43;;
64395;SDS011;50717;53.360;6.290;2022-08-07T00:43:17;13.68;;;8.73;;
64395;SDS011;50717;53.360;6.290;2022-08-07T00:45:42;13.27;;;7.82;;
64395;SDS011;50717;53.360;6.290;2022-08-07T00:48:09;11.18;;;8.02;;
64395;SDS011;50717;53.360;6.290;2022-08-07T00:50:35;14.90;;;8.48;;
64395;SDS011;50717;53.360;6.290;2022-08-07T00:53:02;12.40;;;8.63;;
64395;SDS011;50717;53.360;6.290;2022-08-07T00:55:28;14.25;;;8.73;;
64395;SDS011;50717;53.360;6.290;2022-08-07T00:57:54;12.35;;;8.45;;
64395;SDS011;50717;53.360;6.290;2022-08-07T01:00:20;13.23;;;8.43;;
64395;SDS011;50717;53.360;6.290;2022-08-07T01:02:45;12.10;;;9.02;;
64395;SDS011;50717;53.360;6.290;2022-08-07T01:05:12;16.27;;;9.20;;
64395;SDS011;50717;53.360;6.290;2022-08-07T01:07:38;14.10;;;8.90;;
64395;SDS011;50717;53.360;6.290;2022-08-07T01:10:06;13.60;;;9.98;;
64395;SDS011;50717;53.360;6.290;2022-08-07T01:12:32;13.07;;;9.38;;
64395;SDS011;50717;53.360;6.290;2022-08-07T01:14:59;16.02;;;10.13;;
64395;SDS011;50717;53.360;6.290;2022-08-07T01:17:26;13.40;;;9.73;;
64395;SDS011;50717;53.360;6.290;2022-08-07T01:19:53;14.50;;;9.73;;
64395;SDS011;50717;53.360;6.290;2022-08-07T01:22:22;14.13;;;10.02;;
64395;SDS011;50717;53.360;6.290;2022-08-07T01:24:49;16.67;;;10.48;;
64395;SDS011;50717;53.360;6.290;2022-08-07T01:29:40;16.35;;;9.65;;
64395;SDS011;50717;53.360;6.290;2022-08-07T01:32:07;20.17;;;10.85;;
64395;SDS011;50717;53.360;6.290;2022-08-07T01:34:33;14.75;;;9.60;;
64395;SDS011;50717;53.360;6.290;2022-08-07T01:36:59;15.10;;;10.32;;
64395;SDS011;50717;53.360;6.290;2022-08-07T01:41:51;18.27;;;10.95;;
64395;SDS011;50717;53.360;6.290;2022-08-07T01:44:17;15.77;;;11.00;;
64395;SDS011;50717;53.360;6.290;2022-08-07T01:46:43;20.65;;;11.65;;
64395;SDS011;50717;53.360;6.290;2022-08-07T01:49:10;15.05;;;11.23;;
64395;SDS011;50717;53.360;6.290;2022-08-07T01:51:36;16.30;;;11.13;;
64395;SDS011;50717;53.360;6.290;2022-08-07T01:54:06;18.90;;;12.60;;
64395;SDS011;50717;53.360;6.290;2022-08-07T01:56:40;17.35;;;11.77;;
64395;SDS011;50717;53.360;6.290;2022-08-07T01:59:14;17.92;;;11.95;;
64395;SDS011;50717;53.360;6.290;2022-08-07T02:01:57;16.90;;;11.88;;
64395;SDS011;50717;53.360;6.290;2022-08-07T02:04:34;17.38;;;11.30;;
64395;SDS011;50717;53.360;6.290;2022-08-07T02:07:21;21.63;;;12.02;;
64395;SDS011;50717;53.360;6.290;2022-08-07T02:09:50;18.02;;;11.43;;
64395;SDS011;50717;53.360;6.290;2022-08-07T02:12:18;17.27;;;12.23;;
64395;SDS011;50717;53.360;6.290;2022-08-07T02:14:46;17.75;;;11.50;;
64395;SDS011;50717;53.360;6.290;2022-08-07T02:17:15;19.50;;;11.50;;
64395;SDS011;50717;53.360;6.290;2022-08-07T02:19:43;19.73;;;12.07;;
64395;SDS011;50717;53.360;6.290;2022-08-07T02:22:12;15.55;;;10.95;;
64395;SDS011;50717;53.360;6.290;2022-08-07T02:24:42;17.88;;;11.32;;
64395;SDS011;50717;53.360;6.290;2022-08-07T02:27:10;16.55;;;11.80;;
64395;SDS011;50717;53.360;6.290;2022-08-07T02:29:38;15.68;;;11.00;;
64395;SDS011;50717;53.360;6.290;2022-08-07T02:32:05;18.63;;;11.70;;
64395;SDS011;50717;53.360;6.290;2022-08-07T02:34:32;19.75;;;11.88;;
64395;SDS011;50717;53.360;6.290;2022-08-07T02:36:59;16.10;;;10.80;;
64395;SDS011;50717;53.360;6.290;2022-08-07T02:39:27;16.30;;;11.65;;
64395;SDS011;50717;53.360;6.290;2022-08-07T02:41:54;16.90;;;11.32;;
64395;SDS011;50717;53.360;6.290;2022-08-07T02:44:21;16.38;;;11.27;;
64395;SDS011;50717;53.360;6.290;2022-08-07T02:46:48;18.40;;;10.93;;
64395;SDS011;50717;53.360;6.290;2022-08-07T02:49:17;18.23;;;11.15;;
64395;SDS011;50717;53.360;6.290;2022-08-07T02:51:43;16.58;;;11.13;;
64395;SDS011;50717;53.360;6.290;2022-08-07T02:54:11;18.27;;;11.10;;
64395;SDS011;50717;53.360;6.290;2022-08-07T02:56:39;20.35;;;11.27;;
64395;SDS011;50717;53.360;6.290;2022-08-07T02:59:08;17.40;;;10.93;;
64395;SDS011;50717;53.360;6.290;2022-08-07T03:01:38;17.20;;;11.70;;
64395;SDS011;50717;53.360;6.290;2022-08-07T03:04:06;22.67;;;11.20;;
64395;SDS011;50717;53.360;6.290;2022-08-07T03:06:34;18.75;;;10.88;;
64395;SDS011;50717;53.360;6.290;2022-08-07T03:09:02;18.27;;;10.88;;
64395;SDS011;50717;53.360;6.290;2022-08-07T03:11:30;17.27;;;10.57;;
64395;SDS011;50717;53.360;6.290;2022-08-07T03:13:57;18.20;;;10.45;;
64395;SDS011;50717;53.360;6.290;2022-08-07T03:16:24;14.85;;;10.40;;
64395;SDS011;50717;53.360;6.290;2022-08-07T03:21:16;15.40;;;10.40;;
64395;SDS011;50717;53.360;6.290;2022-08-07T03:23:43;16.92;;;9.98;;
64395;SDS011;50717;53.360;6.290;2022-08-07T03:26:11;14.20;;;9.68;;
64395;SDS011;50717;53.360;6.290;2022-08-07T03:28:39;17.88;;;10.85;;
64395;SDS011;50717;53.360;6.290;2022-08-07T03:31:06;16.27;;;10.55;;
64395;SDS011;50717;53.360;6.290;2022-08-07T03:33:55;13.07;;;10.10;;
64395;SDS011;50717;53.360;6.290;2022-08-07T03:36:24;13.52;;;9.55;;
64395;SDS011;50717;53.360;6.290;2022-08-07T03:38:51;14.63;;;10.40;;
64395;SDS011;50717;53.360;6.290;2022-08-07T03:41:19;17.25;;;10.02;;
64395;SDS011;50717;53.360;6.290;2022-08-07T03:43:45;14.98;;;10.02;;
64395;SDS011;50717;53.360;6.290;2022-08-07T03:46:12;19.40;;;10.10;;
64395;SDS011;50717;53.360;6.290;2022-08-07T03:48:38;14.85;;;10.02;;
64395;SDS011;50717;53.360;6.290;2022-08-07T03:51:05;15.43;;;10.60;;
64395;SDS011;50717;53.360;6.290;2022-08-07T03:53:33;18.05;;;11.10;;
64395;SDS011;50717;53.360;6.290;2022-08-07T03:58:27;16.77;;;11.50;;
64395;SDS011;50717;53.360;6.290;2022-08-07T04:00:53;15.52;;;10.48;;
64395;SDS011;50717;53.360;6.290;2022-08-07T04:03:21;17.55;;;11.35;;
64395;SDS011;50717;53.360;6.290;2022-08-07T04:08:14;16.10;;;11.02;;
64395;SDS011;50717;53.360;6.290;2022-08-07T04:10:40;18.27;;;10.93;;
64395;SDS011;50717;53.360;6.290;2022-08-07T04:13:07;15.35;;;11.35;;
64395;SDS011;50717;53.360;6.290;2022-08-07T04:15:35;16.83;;;11.70;;
64395;SDS011;50717;53.360;6.290;2022-08-07T04:18:01;21.58;;;12.80;;
64395;SDS011;50717;53.360;6.290;2022-08-07T04:20:27;18.75;;;11.18;;
64395;SDS011;50717;53.360;6.290;2022-08-07T04:22:54;18.00;;;12.00;;
64395;SDS011;50717;53.360;6.290;2022-08-07T04:25:21;16.20;;;11.48;;
64395;SDS011;50717;53.360;6.290;2022-08-07T04:27:48;17.67;;;11.48;;
64395;SDS011;50717;53.360;6.290;2022-08-07T04:30:13;19.45;;;13.30;;
64395;SDS011;50717;53.360;6.290;2022-08-07T04:32:39;17.90;;;12.02;;
64395;SDS011;50717;53.360;6.290;2022-08-07T04:35:06;18.85;;;12.65;;
64395;SDS011;50717;53.360;6.290;2022-08-07T04:37:33;20.60;;;11.80;;
64395;SDS011;50717;53.360;6.290;2022-08-07T04:40:00;21.98;;;12.77;;
64395;SDS011;50717;53.360;6.290;2022-08-07T04:42:26;20.08;;;12.88;;
64395;SDS011;50717;53.360;6.290;2022-08-07T04:44:55;21.92;;;12.85;;
64395;SDS011;50717;53.360;6.290;2022-08-07T04:47:28;17.90;;;12.25;;
64395;SDS011;50717;53.360;6.290;2022-08-07T04:52:40;20.08;;;12.18;;
64395;SDS011;50717;53.360;6.290;2022-08-07T04:58:07;16.05;;;11.35;;
64395;SDS011;50717;53.360;6.290;2022-08-07T05:00:46;16.38;;;10.85;;
64395;SDS011;50717;53.360;6.290;2022-08-07T05:08:47;17.45;;;10.45;;
64395;SDS011;50717;53.360;6.290;2022-08-07T05:12:02;14.32;;;10.40;;
64395;SDS011;50717;53.360;6.290;2022-08-07T05:14:13;13.98;;;10.60;;
64395;SDS011;50717;53.360;6.290;2022-08-07T05:16:43;15.25;;;10.65;;
64395;SDS011;50717;53.360;6.290;2022-08-07T05:19:14;13.98;;;9.85;;
64395;SDS011;50717;53.360;6.290;2022-08-07T05:21:49;18.50;;;10.40;;
64395;SDS011;50717;53.360;6.290;2022-08-07T05:24:19;15.57;;;9.57;;
64395;SDS011;50717;53.360;6.290;2022-08-07T05:26:47;17.17;;;10.32;;
64395;SDS011;50717;53.360;6.290;2022-08-07T05:29:15;16.40;;;9.80;;
64395;SDS011;50717;53.360;6.290;2022-08-07T05:31:43;15.60;;;9.70;;
64395;SDS011;50717;53.360;6.290;2022-08-07T05:34:12;14.43;;;9.43;;
64395;SDS011;50717;53.360;6.290;2022-08-07T05:36:41;13.88;;;9.98;;
64395;SDS011;50717;53.360;6.290;2022-08-07T05:39:14;13.52;;;9.25;;
64395;SDS011;50717;53.360;6.290;2022-08-07T05:41:42;14.85;;;10.13;;
64395;SDS011;50717;53.360;6.290;2022-08-07T05:44:08;15.45;;;10.55;;
64395;SDS011;50717;53.360;6.290;2022-08-07T05:46:36;14.73;;;9.75;;
64395;SDS011;50717;53.360;6.290;2022-08-07T05:49:06;16.75;;;10.32;;
64395;SDS011;50717;53.360;6.290;2022-08-07T05:51:33;15.23;;;10.32;;
64395;SDS011;50717;53.360;6.290;2022-08-07T05:53:59;17.08;;;11.55;;
64395;SDS011;50717;53.360;6.290;2022-08-07T05:56:26;14.93;;;9.57;;
64395;SDS011;50717;53.360;6.290;2022-08-07T05:58:52;13.60;;;8.35;;
64395;SDS011;50717;53.360;6.290;2022-08-07T06:01:19;11.57;;;9.40;;
64395;SDS011;50717;53.360;6.290;2022-08-07T06:03:50;11.40;;;8.40;;
64395;SDS011;50717;53.360;6.290;2022-08-07T06:06:18;12.18;;;8.68;;
64395;SDS011;50717;53.360;6.290;2022-08-07T06:08:45;14.30;;;8.93;;
64395;SDS011;50717;53.360;6.290;2022-08-07T06:11:11;12.48;;;8.40;;
64395;SDS011;50717;53.360;6.290;2022-08-07T06:13:38;12.65;;;9.05;;
64395;SDS011;50717;53.360;6.290;2022-08-07T06:16:07;11.43;;;8.48;;
64395;SDS011;50717;53.360;6.290;2022-08-07T06:18:34;11.75;;;7.45;;
64395;SDS011;50717;53.360;6.290;2022-08-07T06:23:26;10.40;;;7.25;;
64395;SDS011;50717;53.360;6.290;2022-08-07T06:25:53;10.80;;;7.78;;
64395;SDS011;50717;53.360;6.290;2022-08-07T06:30:45;11.18;;;6.72;;
64395;SDS011;50717;53.360;6.290;2022-08-07T06:33:10;10.63;;;7.00;;
64395;SDS011;50717;53.360;6.290;2022-08-07T06:35:36;10.55;;;7.07;;
64395;SDS011;50717;53.360;6.290;2022-08-07T06:38:02;11.68;;;7.20;;
64395;SDS011;50717;53.360;6.290;2022-08-07T06:40:29;9.48;;;7.20;;
64395;SDS011;50717;53.360;6.290;2022-08-07T06:42:58;9.60;;;6.93;;
64395;SDS011;50717;53.360;6.290;2022-08-07T06:45:26;10.77;;;7.38;;
64395;SDS011;50717;53.360;6.290;2022-08-07T06:47:54;8.48;;;6.47;;
64395;SDS011;50717;53.360;6.290;2022-08-07T06:50:20;11.65;;;6.53;;
64395;SDS011;50717;53.360;6.290;2022-08-07T06:52:47;9.90;;;5.65;;
64395;SDS011;50717;53.360;6.290;2022-08-07T06:55:19;7.38;;;6.18;;
64395;SDS011;50717;53.360;6.290;2022-08-07T06:57:47;8.32;;;6.45;;
64395;SDS011;50717;53.360;6.290;2022-08-07T07:00:15;10.50;;;6.20;;
64395;SDS011;50717;53.360;6.290;2022-08-07T07:02:42;6.65;;;5.28;;
64395;SDS011;50717;53.360;6.290;2022-08-07T07:05:08;7.78;;;5.15;;
64395;SDS011;50717;53.360;6.290;2022-08-07T07:10:00;7.50;;;5.63;;
64395;SDS011;50717;53.360;6.290;2022-08-07T07:18:03;10.77;;;6.22;;
64395;SDS011;50717;53.360;6.290;2022-08-07T07:20:41;8.88;;;6.10;;
64395;SDS011;50717;53.360;6.290;2022-08-07T07:23:16;11.38;;;6.43;;
64395;SDS011;50717;53.360;6.290;2022-08-07T07:25:43;12.38;;;6.47;;
64395;SDS011;50717;53.360;6.290;2022-08-07T07:28:11;9.27;;;6.28;;
64395;SDS011;50717;53.360;6.290;2022-08-07T07:30:39;8.38;;;6.38;;
64395;SDS011;50717;53.360;6.290;2022-08-07T07:33:10;7.43;;;5.80;;
64395;SDS011;50717;53.360;6.290;2022-08-07T07:35:38;11.55;;;5.75;;
64395;SDS011;50717;53.360;6.290;2022-08-07T07:38:06;9.20;;;6.03;;
64395;SDS011;50717;53.360;6.290;2022-08-07T07:40:33;7.90;;;6.82;;
64395;SDS011;50717;53.360;6.290;2022-08-07T07:43:02;10.05;;;7.00;;
64395;SDS011;50717;53.360;6.290;2022-08-07T07:45:29;10.80;;;6.40;;
64395;SDS011;50717;53.360;6.290;2022-08-07T07:47:56;9.77;;;6.38;;
64395;SDS011;50717;53.360;6.290;2022-08-07T07:50:24;8.43;;;5.88;;
64395;SDS011;50717;53.360;6.290;2022-08-07T07:52:51;8.35;;;6.32;;
64395;SDS011;50717;53.360;6.290;2022-08-07T07:55:19;8.60;;;5.85;;
64395;SDS011;50717;53.360;6.290;2022-08-07T07:57:48;10.00;;;5.90;;
64395;SDS011;50717;53.360;6.290;2022-08-07T08:00:15;8.95;;;6.40;;
64395;SDS011;50717;53.360;6.290;2022-08-07T08:02:42;7.80;;;5.72;;
64395;SDS011;50717;53.360;6.290;2022-08-07T08:05:11;8.50;;;5.80;;
64395;SDS011;50717;53.360;6.290;2022-08-07T08:07:40;8.10;;;5.80;;
64395;SDS011;50717;53.360;6.290;2022-08-07T08:10:07;7.75;;;5.57;;
64395;SDS011;50717;53.360;6.290;2022-08-07T08:12:35;7.97;;;5.32;;
64395;SDS011;50717;53.360;6.290;2022-08-07T08:15:02;6.10;;;5.30;;
64395;SDS011;50717;53.360;6.290;2022-08-07T08:17:28;6.97;;;5.32;;
64395;SDS011;50717;53.360;6.290;2022-08-07T08:19:59;7.43;;;5.57;;
64395;SDS011;50717;53.360;6.290;2022-08-07T08:22:28;10.90;;;5.75;;
64395;SDS011;50717;53.360;6.290;2022-08-07T08:25:13;6.65;;;5.60;;
64395;SDS011;50717;53.360;6.290;2022-08-07T08:28:00;6.88;;;4.70;;
64395;SDS011;50717;53.360;6.290;2022-08-07T08:30:29;9.88;;;6.13;;
64395;SDS011;50717;53.360;6.290;2022-08-07T08:32:58;7.63;;;5.45;;
64395;SDS011;50717;53.360;6.290;2022-08-07T08:35:27;11.63;;;5.88;;
64395;SDS011;50717;53.360;6.290;2022-08-07T08:37:57;6.15;;;5.35;;
64395;SDS011;50717;53.360;6.290;2022-08-07T08:43:07;7.55;;;5.78;;
64395;SDS011;50717;53.360;6.290;2022-08-07T08:48:44;7.95;;;5.07;;
64395;SDS011;50717;53.360;6.290;2022-08-07T08:51:25;7.60;;;5.15;;
64395;SDS011;50717;53.360;6.290;2022-08-07T08:56:39;10.32;;;5.18;;
64395;SDS011;50717;53.360;6.290;2022-08-07T09:04:28;8.77;;;4.90;;
64395;SDS011;50717;53.360;6.290;2022-08-07T09:07:15;8.77;;;5.22;;
64395;SDS011;50717;53.360;6.290;2022-08-07T09:10:01;7.05;;;4.65;;
64395;SDS011;50717;53.360;6.290;2022-08-07T09:20:50;5.97;;;4.60;;
64395;SDS011;50717;53.360;6.290;2022-08-07T09:28:53;6.60;;;4.18;;
64395;SDS011;50717;53.360;6.290;2022-08-07T09:31:30;8.52;;;4.78;;
64395;SDS011;50717;53.360;6.290;2022-08-07T09:34:14;5.05;;;4.47;;
64395;SDS011;50717;53.360;6.290;2022-08-07T09:42:20;5.82;;;4.47;;
64395;SDS011;50717;53.360;6.290;2022-08-07T09:45:14;9.02;;;4.90;;
64395;SDS011;50717;53.360;6.290;2022-08-07T09:50:43;8.68;;;4.20;;
64395;SDS011;50717;53.360;6.290;2022-08-07T09:53:30;7.53;;;4.22;;
64395;SDS011;50717;53.360;6.290;2022-08-07T10:01:40;6.70;;;3.90;;
64395;SDS011;50717;53.360;6.290;2022-08-07T10:07:07;6.65;;;3.47;;
64395;SDS011;50717;53.360;6.290;2022-08-07T10:12:59;6.45;;;4.43;;
64395;SDS011;50717;53.360;6.290;2022-08-07T10:18:21;8.10;;;5.00;;
64395;SDS011;50717;53.360;6.290;2022-08-07T10:26:22;4.63;;;3.33;;
64395;SDS011;50717;53.360;6.290;2022-08-07T10:31:50;4.07;;;3.30;;
64395;SDS011;50717;53.360;6.290;2022-08-07T10:34:32;6.90;;;3.35;;
64395;SDS011;50717;53.360;6.290;2022-08-07T10:40:26;6.13;;;3.50;;
64395;SDS011;50717;53.360;6.290;2022-08-07T10:45:51;4.15;;;2.75;;
64395;SDS011;50717;53.360;6.290;2022-08-07T10:49:25;3.58;;;2.63;;
64395;SDS011;50717;53.360;6.290;2022-08-07T10:51:38;5.05;;;3.10;;
64395;SDS011;50717;53.360;6.290;2022-08-07T10:57:18;7.10;;;3.30;;
64395;SDS011;50717;53.360;6.290;2022-08-07T11:13:48;6.43;;;3.20;;
64395;SDS011;50717;53.360;6.290;2022-08-07T11:16:19;6.63;;;2.53;;
64395;SDS011;50717;53.360;6.290;2022-08-07T11:21:33;4.55;;;2.80;;
64395;SDS011;50717;53.360;6.290;2022-08-07T11:24:27;10.70;;;3.00;;
64395;SDS011;50717;53.360;6.290;2022-08-07T11:30:04;6.10;;;2.75;;
64395;SDS011;50717;53.360;6.290;2022-08-07T11:35:29;4.53;;;3.22;;
64395;SDS011;50717;53.360;6.290;2022-08-07T11:38:17;4.65;;;2.72;;
64395;SDS011;50717;53.360;6.290;2022-08-07T11:40:58;4.60;;;2.50;;
64395;SDS011;50717;53.360;6.290;2022-08-07T11:43:29;6.63;;;2.70;;
64395;SDS011;50717;53.360;6.290;2022-08-07T11:48:59;5.05;;;2.53;;
64395;SDS011;50717;53.360;6.290;2022-08-07T12:02:46;5.75;;;2.30;;
64395;SDS011;50717;53.360;6.290;2022-08-07T12:08:25;3.25;;;2.13;;
64395;SDS011;50717;53.360;6.290;2022-08-07T12:11:05;6.00;;;2.50;;
64395;SDS011;50717;53.360;6.290;2022-08-07T12:16:26;4.10;;;1.98;;
64395;SDS011;50717;53.360;6.290;2022-08-07T12:19:00;6.97;;;2.13;;
64395;SDS011;50717;53.360;6.290;2022-08-07T12:24:30;3.97;;;1.77;;
64395;SDS011;50717;53.360;6.290;2022-08-07T12:27:15;6.30;;;2.08;;
64395;SDS011;50717;53.360;6.290;2022-08-07T12:29:53;3.35;;;1.80;;
64395;SDS011;50717;53.360;6.290;2022-08-07T12:33:10;3.42;;;1.90;;
64395;SDS011;50717;53.360;6.290;2022-08-07T12:35:26;2.45;;;1.88;;
64395;SDS011;50717;53.360;6.290;2022-08-07T12:37:55;2.75;;;1.67;;
64395;SDS011;50717;53.360;6.290;2022-08-07T12:40:23;4.13;;;1.92;;
64395;SDS011;50717;53.360;6.290;2022-08-07T12:42:51;2.88;;;2.08;;
64395;SDS011;50717;53.360;6.290;2022-08-07T12:45:20;2.25;;;1.80;;
64395;SDS011;50717;53.360;6.290;2022-08-07T12:47:59;3.22;;;2.00;;
64395;SDS011;50717;53.360;6.290;2022-08-07T12:53:32;2.60;;;1.90;;
64395;SDS011;50717;53.360;6.290;2022-08-07T12:58:52;4.45;;;2.58;;
64395;SDS011;50717;53.360;6.290;2022-08-07T13:03:55;2.55;;;2.35;;
64395;SDS011;50717;53.360;6.290;2022-08-07T13:12:38;2.53;;;2.30;;
64395;SDS011;50717;53.360;6.290;2022-08-07T13:15:23;6.22;;;2.70;;
64395;SDS011;50717;53.360;6.290;2022-08-07T13:18:23;3.20;;;2.30;;
64395;SDS011;50717;53.360;6.290;2022-08-07T13:21:12;5.40;;;2.10;;
64395;SDS011;50717;53.360;6.290;2022-08-07T13:26:43;4.00;;;2.22;;
64395;SDS011;50717;53.360;6.290;2022-08-07T13:29:19;3.20;;;1.92;;
64395;SDS011;50717;53.360;6.290;2022-08-07T13:31:51;4.50;;;2.45;;
64395;SDS011;50717;53.360;6.290;2022-08-07T13:34:34;3.53;;;1.98;;
64395;SDS011;50717;53.360;6.290;2022-08-07T13:39:55;5.18;;;1.83;;
64395;SDS011;50717;53.360;6.290;2022-08-07T13:42:31;3.55;;;1.92;;
64395;SDS011;50717;53.360;6.290;2022-08-07T13:45:00;4.40;;;1.90;;
64395;SDS011;50717;53.360;6.290;2022-08-07T13:47:29;3.75;;;2.00;;
64395;SDS011;50717;53.360;6.290;2022-08-07T13:49:57;2.65;;;1.90;;
64395;SDS011;50717;53.360;6.290;2022-08-07T13:52:25;3.47;;;2.10;;
64395;SDS011;50717;53.360;6.290;2022-08-07T13:54:54;2.97;;;1.80;;
64395;SDS011;50717;53.360;6.290;2022-08-07T13:57:24;6.90;;;2.30;;
64395;SDS011;50717;53.360;6.290;2022-08-07T13:59:51;7.22;;;1.85;;
64395;SDS011;50717;53.360;6.290;2022-08-07T14:02:22;3.83;;;2.13;;
64395;SDS011;50717;53.360;6.290;2022-08-07T14:04:55;4.55;;;2.30;;
64395;SDS011;50717;53.360;6.290;2022-08-07T14:07:27;6.53;;;2.10;;
64395;SDS011;50717;53.360;6.290;2022-08-07T14:10:00;4.32;;;2.25;;
64395;SDS011;50717;53.360;6.290;2022-08-07T14:15:04;3.15;;;1.90;;
64395;SDS011;50717;53.360;6.290;2022-08-07T14:17:34;6.70;;;2.50;;
64395;SDS011;50717;53.360;6.290;2022-08-07T14:20:05;6.35;;;2.30;;
64395;SDS011;50717;53.360;6.290;2022-08-07T14:22:46;6.60;;;2.38;;
64395;SDS011;50717;53.360;6.290;2022-08-07T14:25:25;6.18;;;2.58;;
64395;SDS011;50717;53.360;6.290;2022-08-07T14:27:54;15.60;;;3.10;;
64395;SDS011;50717;53.360;6.290;2022-08-07T14:30:20;3.75;;;2.90;;
64395;SDS011;50717;53.360;6.290;2022-08-07T14:32:49;4.20;;;2.50;;
64395;SDS011;50717;53.360;6.290;2022-08-07T14:35:21;9.32;;;2.85;;
64395;SDS011;50717;53.360;6.290;2022-08-07T14:37:52;7.35;;;3.50;;
64395;SDS011;50717;53.360;6.290;2022-08-07T14:40:23;8.43;;;2.72;;
64395;SDS011;50717;53.360;6.290;2022-08-07T14:45:25;7.13;;;3.10;;
64395;SDS011;50717;53.360;6.290;2022-08-07T14:47:57;7.28;;;3.17;;
64395;SDS011;50717;53.360;6.290;2022-08-07T14:50:30;4.55;;;2.63;;
64395;SDS011;50717;53.360;6.290;2022-08-07T14:52:56;7.32;;;3.05;;
64395;SDS011;50717;53.360;6.290;2022-08-07T14:55:29;5.45;;;2.75;;
64395;SDS011;50717;53.360;6.290;2022-08-07T14:57:57;6.47;;;2.80;;
64395;SDS011;50717;53.360;6.290;2022-08-07T15:00:29;3.83;;;2.30;;
64395;SDS011;50717;53.360;6.290;2022-08-07T15:03:01;6.97;;;2.72;;
64395;SDS011;50717;53.360;6.290;2022-08-07T15:05:30;5.75;;;2.63;;
64395;SDS011;50717;53.360;6.290;2022-08-07T15:07:57;5.75;;;2.58;;
64395;SDS011;50717;53.360;6.290;2022-08-07T15:10:24;4.72;;;2.53;;
64395;SDS011;50717;53.360;6.290;2022-08-07T15:12:52;5.18;;;2.80;;
64395;SDS011;50717;53.360;6.290;2022-08-07T15:15:23;4.47;;;2.75;;
64395;SDS011;50717;53.360;6.290;2022-08-07T15:17:58;9.45;;;3.15;;
64395;SDS011;50717;53.360;6.290;2022-08-07T15:20:32;4.45;;;2.75;;
64395;SDS011;50717;53.360;6.290;2022-08-07T15:23:01;7.18;;;2.90;;
64395;SDS011;50717;53.360;6.290;2022-08-07T15:25:32;5.47;;;3.10;;
64395;SDS011;50717;53.360;6.290;2022-08-07T15:28:02;7.60;;;2.97;;
64395;SDS011;50717;53.360;6.290;2022-08-07T15:30:30;7.55;;;3.13;;
64395;SDS011;50717;53.360;6.290;2022-08-07T15:32:58;4.70;;;3.20;;
64395;SDS011;50717;53.360;6.290;2022-08-07T15:35:26;6.32;;;3.13;;
64395;SDS011;50717;53.360;6.290;2022-08-07T15:37:54;10.45;;;3.38;;
64395;SDS011;50717;53.360;6.290;2022-08-07T15:40:25;9.00;;;3.35;;
64395;SDS011;50717;53.360;6.290;2022-08-07T15:45:52;14.57;;;3.92;;
64395;SDS011;50717;53.360;6.290;2022-08-07T15:48:20;6.53;;;3.65;;
64395;SDS011;50717;53.360;6.290;2022-08-07T15:51:06;6.25;;;3.22;;
64395;SDS011;50717;53.360;6.290;2022-08-07T15:53:38;6.15;;;2.75;;
64395;SDS011;50717;53.360;6.290;2022-08-07T15:56:06;13.02;;;3.33;;
64395;SDS011;50717;53.360;6.290;2022-08-07T15:58:39;6.00;;;3.20;;
64395;SDS011;50717;53.360;6.290;2022-08-07T16:01:20;6.75;;;2.90;;
64395;SDS011;50717;53.360;6.290;2022-08-07T16:03:51;10.35;;;3.42;;
64395;SDS011;50717;53.360;6.290;2022-08-07T16:06:28;6.15;;;2.80;;
64395;SDS011;50717;53.360;6.290;2022-08-07T16:09:00;7.82;;;2.72;;
64395;SDS011;50717;53.360;6.290;2022-08-07T16:14:35;4.63;;;2.72;;
64395;SDS011;50717;53.360;6.290;2022-08-07T16:34:04;4.28;;;2.13;;
64395;SDS011;50717;53.360;6.290;2022-08-07T16:47:52;3.70;;;1.92;;
64395;SDS011;50717;53.360;6.290;2022-08-07T16:56:18;4.70;;;1.60;;
64395;SDS011;50717;53.360;6.290;2022-08-07T17:08:34;4.10;;;2.35;;
64395;SDS011;50717;53.360;6.290;2022-08-07T17:11:08;3.63;;;1.75;;
64395;SDS011;50717;53.360;6.290;2022-08-07T17:13:51;2.92;;;1.40;;
64395;SDS011;50717;53.360;6.290;2022-08-07T17:16:27;4.15;;;1.50;;
64395;SDS011;50717;53.360;6.290;2022-08-07T17:19:12;4.60;;;1.88;;
64395;SDS011;50717;53.360;6.290;2022-08-07T17:21:50;5.15;;;1.73;;
64395;SDS011;50717;53.360;6.290;2022-08-07T17:27:14;5.28;;;1.35;;
64395;SDS011;50717;53.360;6.290;2022-08-07T17:30:17;3.97;;;1.67;;
64395;SDS011;50717;53.360;6.290;2022-08-07T17:35:12;5.05;;;1.65;;
64395;SDS011;50717;53.360;6.290;2022-08-07T17:38:00;4.75;;;1.60;;
64395;SDS011;50717;53.360;6.290;2022-08-07T17:40:34;5.03;;;1.60;;
64395;SDS011;50717;53.360;6.290;2022-08-07T17:43:12;4.22;;;1.70;;
64395;SDS011;50717;53.360;6.290;2022-08-07T17:45:54;7.13;;;2.10;;
64395;SDS011;50717;53.360;6.290;2022-08-07T17:48:26;5.82;;;1.55;;
64395;SDS011;50717;53.360;6.290;2022-08-07T17:51:12;4.38;;;1.70;;
64395;SDS011;50717;53.360;6.290;2022-08-07T17:53:57;3.45;;;1.50;;
64395;SDS011;50717;53.360;6.290;2022-08-07T17:56:39;7.70;;;1.67;;
64395;SDS011;50717;53.360;6.290;2022-08-07T17:59:18;4.18;;;1.45;;
64395;SDS011;50717;53.360;6.290;2022-08-07T18:01:56;3.30;;;1.30;;
64395;SDS011;50717;53.360;6.290;2022-08-07T18:04:41;4.22;;;1.58;;
64395;SDS011;50717;53.360;6.290;2022-08-07T18:07:43;3.00;;;1.40;;
64395;SDS011;50717;53.360;6.290;2022-08-07T18:10:18;4.25;;;1.63;;
64395;SDS011;50717;53.360;6.290;2022-08-07T18:13:07;3.38;;;1.50;;
64395;SDS011;50717;53.360;6.290;2022-08-07T18:18:31;3.80;;;1.80;;
64395;SDS011;50717;53.360;6.290;2022-08-07T18:21:08;3.05;;;1.58;;
64395;SDS011;50717;53.360;6.290;2022-08-07T18:48:25;7.43;;;2.00;;
64395;SDS011;50717;53.360;6.290;2022-08-07T18:51:04;4.65;;;1.58;;
64395;SDS011;50717;53.360;6.290;2022-08-07T18:56:24;2.47;;;1.55;;
64395;SDS011;50717;53.360;6.290;2022-08-07T18:58:54;4.95;;;2.00;;
64395;SDS011;50717;53.360;6.290;2022-08-07T19:03:55;10.40;;;2.70;;
64395;SDS011;50717;53.360;6.290;2022-08-07T19:15:15;4.50;;;1.77;;
64395;SDS011;50717;53.360;6.290;2022-08-07T19:17:30;5.93;;;1.60;;
64395;SDS011;50717;53.360;6.290;2022-08-07T19:20:18;14.63;;;2.53;;
64395;SDS011;50717;53.360;6.290;2022-08-07T19:23:54;3.95;;;1.42;;
64395;SDS011;50717;53.360;6.290;2022-08-07T19:25:53;4.80;;;1.50;;
64395;SDS011;50717;53.360;6.290;2022-08-07T19:28:21;2.83;;;1.67;;
64395;SDS011;50717;53.360;6.290;2022-08-07T19:30:54;6.28;;;2.22;;
64395;SDS011;50717;53.360;6.290;2022-08-07T19:33:23;3.95;;;1.60;;
64395;SDS011;50717;53.360;6.290;2022-08-07T19:35:52;5.57;;;1.73;;
64395;SDS011;50717;53.360;6.290;2022-08-07T19:38:20;8.40;;;2.10;;
64395;SDS011;50717;53.360;6.290;2022-08-07T19:40:50;3.88;;;1.83;;